Time,TemperatureF,DewpointF,PressureIn,WindDirection,WindDirectionDegrees,WindSpeedMPH,WindSpeedGustMPH,Humidity,HourlyPrecipIn,Conditions,Clouds,dailyrainin,SoftwareType,DateUTC
2013-05-13 00:03:00,63.0,56.0,29.98,NNW,331,0.0,1.0,79,0.00,,,0.01,,2013-05-13 04:03:00,
2013-05-13 00:12:00,63.0,56.0,29.98,NNW,331,0.0,1.0,79,0.00,,,0.01,,2013-05-13 04:12:00,
2013-05-13 00:23:00,63.0,56.0,29.98,NNW,331,0.0,1.0,78,0.00,,,0.01,,2013-05-13 04:23:00,
2013-05-13 00:33:00,63.0,54.0,29.98,NNW,331,0.0,1.0,73,0.00,,,0.01,,2013-05-13 04:33:00,
2013-05-13 00:42:00,63.0,54.0,29.98,NNW,331,0.0,1.0,73,0.00,,,0.01,,2013-05-13 04:42:00,
2013-05-13 00:52:00,64.0,53.0,29.99,NNE,29,0.0,1.0,67,0.00,,,0.01,,2013-05-13 04:52:00,
2013-05-13 01:02:00,64.0,50.0,29.98,NE,37,0.0,3.0,61,0.00,,,0.01,,2013-05-13 05:02:00,
2013-05-13 01:12:00,64.0,50.0,29.98,NE,37,0.0,3.0,61,0.00,,,0.01,,2013-05-13 05:12:00,
2013-05-13 01:22:00,64.0,50.0,29.98,NNE,14,0.0,1.0,60,0.00,,,0.01,,2013-05-13 05:22:00,
2013-05-13 01:32:00,64.0,50.0,29.98,NNE,15,0.0,2.0,61,0.00,,,0.01,,2013-05-13 05:32:00,
2013-05-13 01:42:00,64.0,50.0,29.98,NNE,15,0.0,2.0,61,0.00,,,0.01,,2013-05-13 05:42:00,
2013-05-13 01:52:00,63.0,49.0,29.99,North,354,0.0,3.0,61,0.00,,,0.01,,2013-05-13 05:52:00,
2013-05-13 02:01:00,63.0,50.0,29.99,NNE,28,0.0,2.0,63,0.00,,,0.01,,2013-05-13 06:01:00,
2013-05-13 02:12:00,63.0,50.0,29.99,NNE,28,0.0,2.0,63,0.00,,,0.01,,2013-05-13 06:12:00,
2013-05-13 02:21:00,62.0,49.0,29.98,North,4,0.0,2.0,62,0.00,,,0.01,,2013-05-13 06:21:00,
2013-05-13 02:32:00,62.0,49.0,29.98,North,2,0.0,3.0,62,0.00,,,0.01,,2013-05-13 06:32:00,
2013-05-13 02:42:00,62.0,49.0,29.98,North,2,0.0,3.0,62,0.00,,,0.01,,2013-05-13 06:42:00,
2013-05-13 02:52:00,61.0,48.0,29.97,NNE,12,1.0,3.0,63,0.00,,,0.00,,2013-05-13 06:52:00,
2013-05-13 03:01:00,61.0,48.0,29.97,East,91,0.0,3.0,63,0.00,,,0.00,,2013-05-13 07:01:00,
2013-05-13 03:11:00,61.0,48.0,29.97,East,91,0.0,3.0,63,0.00,,,0.00,,2013-05-13 07:11:00,
2013-05-13 03:22:00,60.0,47.0,29.97,East,81,0.0,2.0,63,0.00,,,0.00,,2013-05-13 07:22:00,
2013-05-13 03:32:00,60.0,48.0,29.98,ENE,75,0.0,2.0,64,0.00,,,0.00,,2013-05-13 07:32:00,
2013-05-13 03:42:00,60.0,48.0,29.98,ENE,75,0.0,2.0,64,0.00,,,0.00,,2013-05-13 07:42:00,
2013-05-13 03:52:00,59.0,48.0,29.98,ENE,75,0.0,1.0,67,0.00,,,0.00,,2013-05-13 07:52:00,
2013-05-13 04:02:00,59.0,48.0,29.98,ENE,75,0.0,1.0,67,0.00,,,0.00,,2013-05-13 08:02:00,
2013-05-13 04:11:00,59.0,48.0,29.98,ENE,75,0.0,1.0,67,0.00,,,0.00,,2013-05-13 08:11:00,
2013-05-13 04:21:00,58.0,47.0,29.97,ENE,75,0.0,1.0,66,0.00,,,0.00,,2013-05-13 08:21:00,
2013-05-13 04:32:00,58.0,47.0,29.97,ENE,66,0.0,1.0,67,0.00,,,0.00,,2013-05-13 08:32:00,
2013-05-13 04:42:00,58.0,47.0,29.97,ENE,66,0.0,1.0,67,0.00,,,0.00,,2013-05-13 08:42:00,
2013-05-13 04:52:00,58.0,47.0,29.98,ENE,66,0.0,0.0,67,0.00,,,0.00,,2013-05-13 08:52:00,
2013-05-13 05:01:00,58.0,48.0,29.98,ENE,66,0.0,0.0,69,0.00,,,0.00,,2013-05-13 09:01:00,
2013-05-13 05:11:00,58.0,48.0,29.98,ENE,66,0.0,0.0,69,0.00,,,0.00,,2013-05-13 09:11:00,
2013-05-13 05:21:00,57.0,48.0,29.99,ENE,66,0.0,1.0,71,0.00,,,0.00,,2013-05-13 09:21:00,
2013-05-13 05:33:00,57.0,48.0,29.99,ENE,60,0.0,2.0,71,0.00,,,0.00,,2013-05-13 09:33:00,
2013-05-13 05:42:00,57.0,48.0,29.99,ENE,60,0.0,2.0,71,0.00,,,0.00,,2013-05-13 09:42:00,
2013-05-13 05:52:00,57.0,49.0,29.99,NE,37,0.0,2.0,74,0.00,,,0.00,,2013-05-13 09:52:00,
2013-05-13 06:03:00,56.0,48.0,30.00,NNE,26,1.0,3.0,74,0.00,,,0.00,,2013-05-13 10:03:00,
2013-05-13 06:12:00,56.0,48.0,30.00,NNE,26,1.0,3.0,74,0.00,,,0.00,,2013-05-13 10:12:00,
2013-05-13 06:22:00,56.0,48.0,30.01,North,354,0.0,3.0,75,0.00,,,0.00,,2013-05-13 10:22:00,
2013-05-13 06:33:00,56.0,48.0,30.01,North,354,0.0,3.0,75,0.00,,,0.00,,2013-05-13 10:33:00,
2013-05-13 06:42:00,56.0,48.0,30.01,North,354,0.0,3.0,75,0.00,,,0.00,,2013-05-13 10:42:00,
2013-05-13 06:52:00,57.0,47.0,30.01,North,350,3.0,8.0,70,0.00,,,0.00,,2013-05-13 10:52:00,
2013-05-13 07:02:00,58.0,47.0,30.01,North,354,3.0,6.0,68,0.00,,,0.00,,2013-05-13 11:02:00,
2013-05-13 07:12:00,58.0,47.0,30.01,North,354,3.0,6.0,68,0.00,,,0.00,,2013-05-13 11:12:00,
2013-05-13 07:22:00,59.0,48.0,30.03,North,8,4.0,13.0,66,0.00,,,0.00,,2013-05-13 11:22:00,
2013-05-13 07:32:00,59.0,47.0,30.03,North,8,5.0,7.0,65,0.00,,,0.00,,2013-05-13 11:32:00,
2013-05-13 07:42:00,59.0,47.0,30.03,North,8,5.0,7.0,65,0.00,,,0.00,,2013-05-13 11:42:00,
2013-05-13 07:52:00,59.0,46.0,30.03,North,5,4.0,13.0,63,0.00,,,0.00,,2013-05-13 11:52:00,
2013-05-13 08:02:00,59.0,45.0,30.03,NNE,17,4.0,12.0,60,0.00,,,0.00,,2013-05-13 12:02:00,
2013-05-13 08:12:00,59.0,45.0,30.03,NNE,17,4.0,12.0,60,0.00,,,0.00,,2013-05-13 12:12:00,
2013-05-13 08:21:00,60.0,44.0,30.04,North,350,5.0,12.0,55,0.00,,,0.00,,2013-05-13 12:21:00,
2013-05-13 08:32:00,60.0,44.0,30.04,North,354,5.0,13.0,55,0.00,,,0.00,,2013-05-13 12:32:00,
2013-05-13 08:42:00,60.0,44.0,30.04,North,354,5.0,13.0,55,0.00,,,0.00,,2013-05-13 12:42:00,
2013-05-13 08:52:00,61.0,44.0,30.05,North,355,2.0,5.0,54,0.00,,,0.00,,2013-05-13 12:52:00,
2013-05-13 09:01:00,62.0,44.0,30.05,NNE,17,6.0,10.0,52,0.00,,,0.00,,2013-05-13 13:01:00,
2013-05-13 09:11:00,62.0,44.0,30.05,NNE,17,6.0,10.0,52,0.00,,,0.00,,2013-05-13 13:11:00,
2013-05-13 09:21:00,62.0,44.0,30.07,North,359,5.0,10.0,51,0.00,,,0.00,,2013-05-13 13:21:00,
2013-05-13 09:32:00,62.0,44.0,30.07,North,9,5.0,10.0,52,0.00,,,0.00,,2013-05-13 13:32:00,
2013-05-13 09:42:00,62.0,44.0,30.07,North,9,5.0,10.0,52,0.00,,,0.00,,2013-05-13 13:42:00,
2013-05-13 09:52:00,62.0,43.0,30.08,NNW,345,3.0,13.0,50,0.00,,,0.00,,2013-05-13 13:52:00,
2013-05-13 10:02:00,63.0,44.0,30.08,ENE,59,2.0,12.0,50,0.00,,,0.00,,2013-05-13 14:02:00,
2013-05-13 10:11:00,63.0,44.0,30.08,ENE,59,2.0,12.0,50,0.00,,,0.00,,2013-05-13 14:11:00,
2013-05-13 10:22:00,65.0,43.0,30.09,NNE,22,6.0,15.0,44,0.00,,,0.00,,2013-05-13 14:22:00,
2013-05-13 10:32:00,65.0,44.0,30.09,NNW,331,3.0,12.0,46,0.00,,,0.00,,2013-05-13 14:32:00,
2013-05-13 10:41:00,65.0,44.0,30.09,NNW,331,3.0,12.0,46,0.00,,,0.00,,2013-05-13 14:41:00,
2013-05-13 10:52:00,64.0,42.0,30.09,North,0,7.0,15.0,44,0.00,,,0.00,,2013-05-13 14:52:00,
2013-05-13 11:01:00,64.0,43.0,30.09,NNW,341,2.0,10.0,47,0.00,,,0.00,,2013-05-13 15:01:00,
2013-05-13 11:11:00,64.0,43.0,30.09,NNW,341,2.0,10.0,47,0.00,,,0.00,,2013-05-13 15:11:00,
2013-05-13 11:21:00,65.0,41.0,30.10,North,4,5.0,17.0,42,0.00,,,0.00,,2013-05-13 15:21:00,
2013-05-13 11:32:00,65.0,43.0,30.10,North,4,5.0,13.0,44,0.00,,,0.00,,2013-05-13 15:32:00,
2013-05-13 11:42:00,65.0,43.0,30.10,North,4,5.0,13.0,44,0.00,,,0.00,,2013-05-13 15:42:00,
2013-05-13 11:53:00,67.0,44.0,30.10,NNW,335,4.0,12.0,43,0.00,,,0.00,,2013-05-13 15:53:00,
2013-05-13 12:03:00,68.0,43.0,30.10,North,0,5.0,12.0,40,0.00,,,0.00,,2013-05-13 16:03:00,
2013-05-13 12:12:00,68.0,43.0,30.10,North,0,5.0,12.0,40,0.00,,,0.00,,2013-05-13 16:12:00,
2013-05-13 12:21:00,68.0,46.0,30.09,North,354,1.0,14.0,45,0.00,,,0.00,,2013-05-13 16:21:00,
2013-05-13 12:33:00,68.0,43.0,30.09,NNW,336,5.0,12.0,40,0.00,,,0.00,,2013-05-13 16:33:00,
2013-05-13 12:42:00,70.0,43.0,30.09,North,354,6.0,14.0,38,0.00,,,0.00,,2013-05-13 16:42:00,
2013-05-13 12:53:00,70.0,43.0,30.09,North,354,6.0,14.0,38,0.00,,,0.00,,2013-05-13 16:53:00,
2013-05-13 13:02:00,70.0,43.0,30.09,NNE,18,6.0,12.0,38,0.00,,,0.00,,2013-05-13 17:02:00,
2013-05-13 13:12:00,70.0,43.0,30.09,NNE,18,6.0,12.0,38,0.00,,,0.00,,2013-05-13 17:12:00,
2013-05-13 13:21:00,71.0,43.0,30.08,NNW,334,6.0,12.0,36,0.00,,,0.00,,2013-05-13 17:21:00,
2013-05-13 13:32:00,72.0,44.0,30.08,North,354,3.0,8.0,37,0.00,,,0.00,,2013-05-13 17:32:00,
2013-05-13 13:42:00,72.0,44.0,30.08,North,354,3.0,8.0,37,0.00,,,0.00,,2013-05-13 17:42:00,
2013-05-13 13:54:00,72.0,42.0,30.08,NNE,14,4.0,10.0,34,0.00,,,0.00,,2013-05-13 17:54:00,
2013-05-13 14:03:00,73.0,47.0,30.08,West,279,1.0,7.0,39,0.00,,,0.00,,2013-05-13 18:03:00,
2013-05-13 14:13:00,73.0,47.0,30.08,West,279,1.0,7.0,39,0.00,,,0.00,,2013-05-13 18:13:00,
2013-05-13 14:23:00,74.0,44.0,30.07,North,3,3.0,9.0,34,0.00,,,0.00,,2013-05-13 18:23:00,
2013-05-13 14:32:00,74.0,43.0,30.07,NNE,16,2.0,10.0,33,0.00,,,0.00,,2013-05-13 18:32:00,
2013-05-13 14:42:00,74.0,44.0,30.07,North,358,3.0,12.0,34,0.00,,,0.00,,2013-05-13 18:42:00,
2013-05-13 14:52:00,74.0,44.0,30.07,North,358,3.0,12.0,34,0.00,,,0.00,,2013-05-13 18:52:00,
2013-05-13 15:01:00,74.0,43.0,30.06,NE,45,3.0,10.0,33,0.00,,,0.00,,2013-05-13 19:01:00,
2013-05-13 15:11:00,74.0,43.0,30.06,NE,45,3.0,10.0,33,0.00,,,0.00,,2013-05-13 19:11:00,
2013-05-13 15:22:00,74.0,47.0,30.06,NW,316,2.0,12.0,39,0.00,,,0.00,,2013-05-13 19:22:00,
2013-05-13 15:32:00,75.0,46.0,30.06,NNE,17,2.0,8.0,36,0.00,,,0.00,,2013-05-13 19:32:00,
2013-05-13 15:44:00,75.0,46.0,30.06,NNE,17,2.0,8.0,36,0.00,,,0.00,,2013-05-13 19:44:00,
2013-05-13 15:53:00,75.0,44.0,30.05,NNE,15,2.0,9.0,33,0.00,,,0.00,,2013-05-13 19:53:00,
2013-05-13 16:02:00,75.0,45.0,30.05,North,5,2.0,9.0,35,0.00,,,0.00,,2013-05-13 20:02:00,
2013-05-13 16:11:00,75.0,45.0,30.05,North,5,2.0,9.0,35,0.00,,,0.00,,2013-05-13 20:11:00,
2013-05-13 16:23:00,75.0,45.0,30.04,NW,315,2.0,8.0,34,0.00,,,0.00,,2013-05-13 20:23:00,
2013-05-13 16:34:00,74.0,41.0,30.04,NNE,15,1.0,12.0,30,0.00,,,0.00,,2013-05-13 20:34:00,
2013-05-13 16:44:00,74.0,41.0,30.04,NNE,15,1.0,12.0,30,0.00,,,0.00,,2013-05-13 20:44:00,
2013-05-13 16:53:00,74.0,45.0,30.03,SSW,195,2.0,5.0,36,0.00,,,0.00,,2013-05-13 20:53:00,
2013-05-13 17:03:00,73.0,43.0,30.03,NNE,22,1.0,9.0,34,0.00,,,0.00,,2013-05-13 21:03:00,
2013-05-13 17:14:00,73.0,43.0,30.03,NNE,22,1.0,9.0,34,0.00,,,0.00,,2013-05-13 21:14:00,
2013-05-13 17:23:00,72.0,43.0,30.03,SW,220,0.0,7.0,35,0.00,,,0.00,,2013-05-13 21:23:00,
2013-05-13 17:33:00,72.0,42.0,30.03,North,4,3.0,6.0,34,0.00,,,0.00,,2013-05-13 21:33:00,
2013-05-13 17:43:00,72.0,42.0,30.03,North,4,3.0,6.0,34,0.00,,,0.00,,2013-05-13 21:43:00,
2013-05-13 17:53:00,72.0,44.0,30.02,NE,52,1.0,3.0,37,0.00,,,0.00,,2013-05-13 21:53:00,
2013-05-13 18:02:00,72.0,43.0,30.01,South,175,1.0,3.0,35,0.00,,,0.00,,2013-05-13 22:02:00,
2013-05-13 18:12:00,72.0,43.0,30.01,South,175,1.0,3.0,35,0.00,,,0.00,,2013-05-13 22:12:00,
2013-05-13 18:23:00,71.0,41.0,30.02,NNW,346,2.0,8.0,34,0.00,,,0.00,,2013-05-13 22:23:00,
2013-05-13 18:32:00,71.0,43.0,30.01,NNE,22,1.0,3.0,36,0.00,,,0.00,,2013-05-13 22:32:00,
2013-05-13 18:43:00,71.0,43.0,30.02,NW,320,1.0,5.0,36,0.00,,,0.00,,2013-05-13 22:43:00,
2013-05-13 18:52:00,71.0,43.0,30.02,NW,320,1.0,5.0,36,0.00,,,0.00,,2013-05-13 22:52:00,
2013-05-13 19:02:00,71.0,43.0,30.02,NW,320,1.0,5.0,36,0.00,,,0.00,,2013-05-13 23:02:00,
2013-05-13 19:13:00,71.0,43.0,30.02,NW,320,1.0,5.0,36,0.00,,,0.00,,2013-05-13 23:13:00,
2013-05-13 19:23:00,70.0,41.0,30.02,NNE,32,2.0,8.0,35,0.00,,,0.00,,2013-05-13 23:23:00,
2013-05-13 19:34:00,70.0,42.0,30.03,North,356,1.0,3.0,36,0.00,,,0.00,,2013-05-13 23:34:00,
2013-05-13 19:42:00,70.0,42.0,30.03,North,356,1.0,3.0,36,0.00,,,0.00,,2013-05-13 23:42:00,
2013-05-13 19:54:00,69.0,42.0,30.03,NNE,31,0.0,2.0,37,0.00,,,0.00,,2013-05-13 23:54:00,
2013-05-13 20:02:00,69.0,44.0,30.04,North,9,0.0,2.0,40,0.00,,,0.00,,2013-05-14 00:02:00,
2013-05-13 20:13:00,69.0,44.0,30.04,North,9,0.0,2.0,40,0.00,,,0.00,,2013-05-14 00:13:00,
2013-05-13 20:22:00,67.0,45.0,30.05,North,9,0.0,1.0,45,0.00,,,0.00,,2013-05-14 00:22:00,
2013-05-13 20:32:00,66.0,45.0,30.05,North,10,0.0,1.0,47,0.00,,,0.00,,2013-05-14 00:32:00,
2013-05-13 20:42:00,66.0,45.0,30.05,North,10,0.0,1.0,47,0.00,,,0.00,,2013-05-14 00:42:00,
2013-05-13 20:52:00,64.0,46.0,30.06,North,10,0.0,0.0,52,0.00,,,0.00,,2013-05-14 00:52:00,
2013-05-13 21:02:00,63.0,46.0,30.06,North,9,0.0,1.0,53,0.00,,,0.00,,2013-05-14 01:02:00,
2013-05-13 21:11:00,63.0,46.0,30.06,North,9,0.0,1.0,53,0.00,,,0.00,,2013-05-14 01:11:00,
2013-05-13 21:21:00,62.0,47.0,30.07,North,9,0.0,0.0,58,0.00,,,0.00,,2013-05-14 01:21:00,
2013-05-13 21:32:00,61.0,48.0,30.08,North,9,0.0,1.0,62,0.00,,,0.00,,2013-05-14 01:32:00,
2013-05-13 21:43:00,61.0,48.0,30.08,North,9,0.0,1.0,62,0.00,,,0.00,,2013-05-14 01:43:00,
2013-05-13 21:53:00,60.0,49.0,30.09,North,9,0.0,1.0,66,0.00,,,0.00,,2013-05-14 01:53:00,
2013-05-13 22:02:00,59.0,48.0,30.09,North,9,0.0,1.0,67,0.00,,,0.00,,2013-05-14 02:02:00,
2013-05-13 22:12:00,59.0,48.0,30.09,North,9,0.0,1.0,67,0.00,,,0.00,,2013-05-14 02:12:00,
2013-05-13 22:22:00,58.0,48.0,30.11,North,9,0.0,0.0,70,0.00,,,0.00,,2013-05-14 02:22:00,
2013-05-13 22:32:00,58.0,49.0,30.10,North,9,0.0,0.0,72,0.00,,,0.00,,2013-05-14 02:32:00,
2013-05-13 22:42:00,58.0,49.0,30.10,North,9,0.0,0.0,72,0.00,,,0.00,,2013-05-14 02:42:00,
2013-05-13 22:52:00,57.0,49.0,30.11,North,9,0.0,0.0,75,0.00,,,0.00,,2013-05-14 02:52:00,
2013-05-13 23:01:00,57.0,50.0,30.11,North,9,0.0,0.0,77,0.00,,,0.00,,2013-05-14 03:01:00,
2013-05-13 23:11:00,57.0,50.0,30.11,North,9,0.0,0.0,77,0.00,,,0.00,,2013-05-14 03:11:00,
2013-05-13 23:21:00,56.0,50.0,30.12,North,9,0.0,0.0,80,0.00,,,0.00,,2013-05-14 03:21:00,
2013-05-13 23:33:00,56.0,50.0,30.12,North,10,0.0,0.0,81,0.00,,,0.00,,2013-05-14 03:33:00,
2013-05-13 23:42:00,56.0,50.0,30.12,North,10,0.0,0.0,81,0.00,,,0.00,,2013-05-14 03:42:00,
2013-05-13 23:53:00,55.0,50.0,30.12,North,9,0.0,0.0,82,0.00,,,0.00,,2013-05-14 03:53:00,